Time,TemperatureF,DewpointF,PressureIn,WindDirection,WindDirectionDegrees,WindSpeedMPH,WindSpeedGustMPH,Humidity,HourlyPrecipIn,Conditions,Clouds,dailyrainin,SoftwareType,DateUTC
2013-03-31 00:02:00,27.0,22.0,-100.00,WNW,300,9.0,13.0,81,-99.99,,,-99.99,,2013-03-31 06:02:00,
2013-03-31 00:12:00,27.0,22.0,-100.00,WNW,300,10.0,13.0,78,-99.99,,,-99.99,,2013-03-31 06:12:00,
2013-03-31 00:22:00,27.0,21.0,-100.00,WNW,300,11.0,14.0,77,-99.99,,,-99.99,,2013-03-31 06:22:00,
2013-03-31 00:32:00,27.0,21.0,-100.00,WNW,300,9.0,13.0,78,-99.99,,,-99.99,,2013-03-31 06:32:00,
2013-03-31 00:42:00,26.0,21.0,-100.00,WNW,300,9.0,12.0,80,-99.99,,,-99.99,,2013-03-31 06:42:00,
2013-03-31 00:52:00,27.0,21.0,-100.00,WNW,295,10.0,13.0,78,-99.99,,,-99.99,,2013-03-31 06:52:00,
2013-03-31 01:02:00,27.0,21.0,-100.00,WNW,295,10.0,13.0,78,-99.99,,,-99.99,,2013-03-31 07:02:00,
2013-03-31 01:12:00,27.0,21.0,-100.00,WNW,300,9.0,14.0,78,-99.99,,,-99.99,,2013-03-31 07:12:00,
2013-03-31 01:22:00,27.0,21.0,-100.00,WNW,295,10.0,14.0,77,-99.99,,,-99.99,,2013-03-31 07:22:00,
2013-03-31 01:32:00,28.0,22.0,-100.00,WNW,285,12.0,16.0,76,-99.99,,,-99.99,,2013-03-31 07:32:00,
2013-03-31 01:42:00,29.0,21.0,-100.00,WNW,290,11.0,16.0,73,-99.99,,,-99.99,,2013-03-31 07:42:00,
2013-03-31 01:52:00,29.0,21.0,-100.00,West,280,11.0,14.0,72,-99.99,,,-99.99,,2013-03-31 07:52:00,
2013-03-31 02:02:00,30.0,22.0,-100.00,West,280,12.0,15.0,72,-99.99,,,-99.99,,2013-03-31 08:02:00,
2013-03-31 02:12:00,30.0,23.0,-100.00,West,280,11.0,15.0,73,-99.99,,,-99.99,,2013-03-31 08:12:00,
2013-03-31 02:22:00,29.0,22.0,-100.00,West,270,12.0,14.0,75,-99.99,,,-99.99,,2013-03-31 08:22:00,
2013-03-31 02:32:00,30.0,22.0,-100.00,West,265,14.0,18.0,70,-99.99,,,-99.99,,2013-03-31 08:32:00,
2013-03-31 02:42:00,30.0,21.0,-100.00,West,265,13.0,17.0,67,-99.99,,,-99.99,,2013-03-31 08:42:00,
2013-03-31 02:52:00,30.0,21.0,-100.00,West,270,13.0,15.0,66,-99.99,,,-99.99,,2013-03-31 08:52:00,
2013-03-31 03:02:00,31.0,20.0,-100.00,WSW,255,12.0,17.0,63,-99.99,,,-99.99,,2013-03-31 09:02:00,
2013-03-31 03:12:00,32.0,20.0,-100.00,WSW,245,13.0,17.0,60,-99.99,,,-99.99,,2013-03-31 09:12:00,
2013-03-31 03:22:00,30.0,18.0,-100.00,WSW,245,11.0,15.0,60,-99.99,,,-99.99,,2013-03-31 09:22:00,
2013-03-31 03:33:00,31.0,18.0,-100.00,WSW,250,12.0,16.0,57,-99.99,,,-99.99,,2013-03-31 09:33:00,
2013-03-31 03:42:00,33.0,17.0,-100.00,WSW,255,15.0,18.0,52,-99.99,,,-99.99,,2013-03-31 09:42:00,
2013-03-31 03:53:00,32.0,16.0,-100.00,WSW,255,13.0,17.0,51,-99.99,,,-99.99,,2013-03-31 09:53:00,
2013-03-31 04:03:00,32.0,17.0,-100.00,West,260,14.0,17.0,52,-99.99,,,-99.99,,2013-03-31 10:03:00,
2013-03-31 04:13:00,32.0,17.0,-100.00,West,265,13.0,17.0,53,-99.99,,,-99.99,,2013-03-31 10:13:00,
2013-03-31 04:23:00,32.0,18.0,-100.00,West,265,14.0,17.0,55,-99.99,,,-99.99,,2013-03-31 10:23:00,
2013-03-31 04:32:00,32.0,18.0,-100.00,West,260,14.0,17.0,55,-99.99,,,-99.99,,2013-03-31 10:32:00,
2013-03-31 04:42:00,33.0,19.0,-100.00,West,260,14.0,18.0,55,-99.99,,,-99.99,,2013-03-31 10:42:00,
2013-03-31 04:52:00,33.0,19.0,-100.00,West,265,13.0,18.0,56,-99.99,,,-99.99,,2013-03-31 10:52:00,
2013-03-31 05:02:00,33.0,19.0,-100.00,WSW,255,14.0,18.0,56,-99.99,,,-99.99,,2013-03-31 11:02:00,
2013-03-31 05:12:00,33.0,19.0,-100.00,West,265,13.0,19.0,55,-99.99,,,-99.99,,2013-03-31 11:12:00,
2013-03-31 05:23:00,32.0,18.0,-100.00,West,265,10.0,15.0,56,-99.99,,,-99.99,,2013-03-31 11:23:00,
2013-03-31 05:32:00,31.0,18.0,-100.00,West,275,10.0,12.0,57,-99.99,,,-99.99,,2013-03-31 11:32:00,
2013-03-31 05:42:00,30.0,18.0,-100.00,WNW,300,6.0,12.0,60,-99.99,,,-99.99,,2013-03-31 11:42:00,
2013-03-31 05:52:00,28.0,18.0,-100.00,NW,310,7.0,7.0,66,-99.99,,,-99.99,,2013-03-31 11:52:00,
2013-03-31 06:03:00,27.0,19.0,-100.00,NW,320,6.0,8.0,72,-99.99,,,-99.99,,2013-03-31 12:03:00,
2013-03-31 06:12:00,27.0,20.0,-100.00,NW,320,6.0,7.0,76,-99.99,,,-99.99,,2013-03-31 12:12:00,
2013-03-31 06:22:00,27.0,21.0,-100.00,NW,310,8.0,9.0,76,-99.99,,,-99.99,,2013-03-31 12:22:00,
2013-03-31 06:33:00,27.0,21.0,-100.00,NW,320,8.0,9.0,76,-99.99,,,-99.99,,2013-03-31 12:33:00,
2013-03-31 06:42:00,27.0,21.0,-100.00,NW,305,6.0,12.0,76,-99.99,,,-99.99,,2013-03-31 12:42:00,
2013-03-31 06:52:00,28.0,21.0,-100.00,WNW,300,5.0,11.0,75,-99.99,,,-99.99,,2013-03-31 12:52:00,
2013-03-31 07:02:00,32.0,21.0,-100.00,West,275,11.0,17.0,62,-99.99,,,-99.99,,2013-03-31 13:02:00,
2013-03-31 07:12:00,32.0,20.0,-100.00,WNW,285,10.0,17.0,61,-99.99,,,-99.99,,2013-03-31 13:12:00,
2013-03-31 07:22:00,34.0,19.0,-100.00,West,260,13.0,21.0,54,-99.99,,,-99.99,,2013-03-31 13:22:00,
2013-03-31 07:32:00,33.0,19.0,-100.00,NW,305,9.0,22.0,55,-99.99,,,-99.99,,2013-03-31 13:32:00,
2013-03-31 07:42:00,34.0,19.0,-100.00,WNW,290,14.0,20.0,54,-99.99,,,-99.99,,2013-03-31 13:42:00,
2013-03-31 07:52:00,36.0,18.0,-100.00,West,270,15.0,26.0,48,-99.99,,,-99.99,,2013-03-31 13:52:00,
2013-03-31 08:02:00,36.0,18.0,-100.00,WNW,285,12.0,18.0,46,-99.99,,,-99.99,,2013-03-31 14:02:00,
2013-03-31 08:12:00,36.0,18.0,-100.00,WNW,300,10.0,17.0,46,-99.99,,,-99.99,,2013-03-31 14:12:00,
2013-03-31 08:22:00,36.0,18.0,-100.00,WNW,295,13.0,20.0,47,-99.99,,,-99.99,,2013-03-31 14:22:00,
2013-03-31 08:32:00,38.0,18.0,-100.00,WNW,290,14.0,22.0,44,-99.99,,,-99.99,,2013-03-31 14:32:00,
2013-03-31 08:42:00,38.0,19.0,-100.00,NW,315,10.0,18.0,45,-99.99,,,-99.99,,2013-03-31 14:42:00,
2013-03-31 08:52:00,36.0,20.0,-100.00,North,355,11.0,14.0,50,-99.99,,,-99.99,,2013-03-31 14:52:00,
2013-03-31 09:02:00,36.0,22.0,-100.00,NNW,335,13.0,17.0,56,-99.99,,,-99.99,,2013-03-31 15:02:00,
2013-03-31 09:12:00,37.0,23.0,-100.00,NW,320,13.0,17.0,54,-99.99,,,-99.99,,2013-03-31 15:12:00,
2013-03-31 09:22:00,39.0,23.0,-100.00,NW,315,15.0,21.0,51,-99.99,,,-99.99,,2013-03-31 15:22:00,
2013-03-31 09:33:00,42.0,21.0,-100.00,WNW,290,16.0,21.0,42,-99.99,,,-99.99,,2013-03-31 15:33:00,
2013-03-31 09:43:00,43.0,18.0,-100.00,West,280,17.0,27.0,36,-99.99,,,-99.99,,2013-03-31 15:43:00,
2013-03-31 09:53:00,43.0,17.0,-100.00,WNW,295,22.0,29.0,33,-99.99,,,-99.99,,2013-03-31 15:53:00,
2013-03-31 10:03:00,44.0,16.0,-100.00,WNW,285,23.0,27.0,32,-99.99,,,-99.99,,2013-03-31 16:03:00,
2013-03-31 10:13:00,44.0,16.0,-100.00,West,275,20.0,28.0,31,-99.99,,,-99.99,,2013-03-31 16:13:00,
2013-03-31 10:23:00,44.0,15.0,-100.00,West,275,25.0,34.0,30,-99.99,,,-99.99,,2013-03-31 16:23:00,
2013-03-31 10:33:00,45.0,15.0,-100.00,West,275,24.0,32.0,29,-99.99,,,-99.99,,2013-03-31 16:33:00,
2013-03-31 10:42:00,45.0,15.0,-100.00,West,280,27.0,33.0,29,-99.99,,,-99.99,,2013-03-31 16:42:00,
2013-03-31 10:53:00,46.0,15.0,-100.00,WNW,295,28.0,36.0,28,-99.99,,,-99.99,,2013-03-31 16:53:00,
2013-03-31 11:03:00,46.0,15.0,-100.00,West,280,22.0,35.0,28,-99.99,,,-99.99,,2013-03-31 17:03:00,
2013-03-31 11:12:00,47.0,15.0,-100.00,WNW,285,23.0,30.0,28,-99.99,,,-99.99,,2013-03-31 17:12:00,
2013-03-31 11:22:00,45.0,13.0,-100.00,West,280,25.0,34.0,27,-99.99,,,-99.99,,2013-03-31 17:22:00,
2013-03-31 11:32:00,46.0,14.0,-100.00,West,270,24.0,30.0,27,-99.99,,,-99.99,,2013-03-31 17:32:00,
2013-03-31 11:42:00,47.0,14.0,-100.00,West,280,26.0,35.0,26,-99.99,,,-99.99,,2013-03-31 17:42:00,
2013-03-31 11:52:00,47.0,14.0,-100.00,West,270,26.0,37.0,26,-99.99,,,-99.99,,2013-03-31 17:52:00,
2013-03-31 12:02:00,47.0,15.0,-100.00,WNW,285,28.0,32.0,26,-99.99,,,-99.99,,2013-03-31 18:02:00,
2013-03-31 12:12:00,48.0,15.0,-100.00,West,265,28.0,37.0,26,-99.99,,,-99.99,,2013-03-31 18:12:00,
2013-03-31 12:22:00,48.0,15.0,-100.00,WNW,285,30.0,36.0,27,-99.99,,,-99.99,,2013-03-31 18:22:00,
2013-03-31 12:32:00,48.0,16.0,-100.00,West,275,27.0,37.0,27,-99.99,,,-99.99,,2013-03-31 18:32:00,
2013-03-31 12:42:00,49.0,16.0,-100.00,West,270,24.0,34.0,27,-99.99,,,-99.99,,2013-03-31 18:42:00,
2013-03-31 12:52:00,49.0,17.0,-100.00,WSW,255,22.0,32.0,27,-99.99,,,-99.99,,2013-03-31 18:52:00,
2013-03-31 13:03:00,50.0,17.0,-100.00,West,275,21.0,32.0,26,-99.99,,,-99.99,,2013-03-31 19:03:00,
2013-03-31 13:12:00,50.0,17.0,-100.00,West,280,22.0,30.0,26,-99.99,,,-99.99,,2013-03-31 19:12:00,
2013-03-31 13:22:00,51.0,17.0,-100.00,West,270,21.0,34.0,26,-99.99,,,-99.99,,2013-03-31 19:22:00,
2013-03-31 13:32:00,50.0,17.0,-100.00,West,270,23.0,32.0,26,-99.99,,,-99.99,,2013-03-31 19:32:00,
2013-03-31 13:42:00,50.0,16.0,-100.00,WSW,255,24.0,35.0,25,-99.99,,,-99.99,,2013-03-31 19:42:00,
2013-03-31 13:53:00,51.0,17.0,-100.00,West,270,29.0,35.0,25,-99.99,,,-99.99,,2013-03-31 19:53:00,
2013-03-31 14:02:00,51.0,17.0,-100.00,West,260,24.0,32.0,25,-99.99,,,-99.99,,2013-03-31 20:02:00,
2013-03-31 14:12:00,52.0,18.0,-100.00,WSW,250,22.0,32.0,25,-99.99,,,-99.99,,2013-03-31 20:12:00,
2013-03-31 14:22:00,52.0,17.0,-100.00,West,265,26.0,36.0,24,-99.99,,,-99.99,,2013-03-31 20:22:00,
2013-03-31 14:33:00,52.0,17.0,-100.00,West,280,24.0,31.0,24,-99.99,,,-99.99,,2013-03-31 20:33:00,
2013-03-31 14:43:00,52.0,17.0,-100.00,WSW,255,22.0,34.0,24,-99.99,,,-99.99,,2013-03-31 20:43:00,
2013-03-31 14:52:00,53.0,17.0,-100.00,WSW,250,21.0,32.0,23,-99.99,,,-99.99,,2013-03-31 20:52:00,
2013-03-31 15:02:00,53.0,16.0,-100.00,West,265,17.0,32.0,22,-99.99,,,-99.99,,2013-03-31 21:02:00,
2013-03-31 15:12:00,53.0,15.0,-100.00,West,265,24.0,30.0,21,-99.99,,,-99.99,,2013-03-31 21:12:00,
2013-03-31 15:22:00,53.0,15.0,-100.00,West,280,19.0,29.0,21,-99.99,,,-99.99,,2013-03-31 21:22:00,
2013-03-31 15:33:00,53.0,15.0,-100.00,West,270,19.0,30.0,21,-99.99,,,-99.99,,2013-03-31 21:33:00,
2013-03-31 15:43:00,53.0,14.0,-100.00,West,275,19.0,31.0,20,-99.99,,,-99.99,,2013-03-31 21:43:00,
2013-03-31 15:53:00,53.0,14.0,-100.00,WNW,290,17.0,29.0,20,-99.99,,,-99.99,,2013-03-31 21:53:00,
2013-03-31 16:03:00,54.0,15.0,-100.00,West,265,19.0,27.0,20,-99.99,,,-99.99,,2013-03-31 22:03:00,
2013-03-31 16:13:00,53.0,14.0,-100.00,West,275,16.0,25.0,20,-99.99,,,-99.99,,2013-03-31 22:13:00,
2013-03-31 16:23:00,53.0,14.0,-100.00,WNW,290,17.0,26.0,20,-99.99,,,-99.99,,2013-03-31 22:23:00,
2013-03-31 16:33:00,53.0,14.0,-100.00,West,270,19.0,28.0,20,-99.99,,,-99.99,,2013-03-31 22:33:00,
2013-03-31 16:42:00,53.0,14.0,-100.00,WSW,255,19.0,24.0,20,-99.99,,,-99.99,,2013-03-31 22:42:00,
2013-03-31 16:52:00,53.0,14.0,-100.00,West,280,19.0,24.0,20,-99.99,,,-99.99,,2013-03-31 22:52:00,
2013-03-31 17:03:00,54.0,15.0,-100.00,WSW,255,15.0,23.0,20,-99.99,,,-99.99,,2013-03-31 23:03:00,
2013-03-31 17:22:00,54.0,14.0,-100.00,NW,310,17.0,22.0,20,-99.99,,,-99.99,,2013-03-31 23:22:00,
2013-03-31 17:32:00,53.0,14.0,-100.00,NW,315,20.0,26.0,20,-99.99,,,-99.99,,2013-03-31 23:32:00,
2013-03-31 17:42:00,53.0,13.0,-100.00,NW,320,18.0,30.0,20,-99.99,,,-99.99,,2013-03-31 23:42:00,
2013-03-31 17:53:00,52.0,12.0,-100.00,NW,325,16.0,26.0,20,-99.99,,,-99.99,,2013-03-31 23:53:00,
2013-03-31 18:02:00,52.0,13.0,-100.00,NW,325,22.0,29.0,20,-99.99,,,-99.99,,2013-04-01 00:02:00,
2013-03-31 18:22:00,51.0,12.0,-100.00,NW,320,21.0,28.0,20,-99.99,,,-99.99,,2013-04-01 00:22:00,
2013-03-31 18:32:00,50.0,12.0,-100.00,NW,325,19.0,27.0,20,-99.99,,,-99.99,,2013-04-01 00:32:00,
2013-03-31 18:42:00,50.0,12.0,-100.00,NW,325,22.0,26.0,21,-99.99,,,-99.99,,2013-04-01 00:42:00,
2013-03-31 18:52:00,49.0,12.0,-100.00,NW,320,21.0,26.0,21,-99.99,,,-99.99,,2013-04-01 00:52:00,
2013-03-31 19:02:00,49.0,12.0,-100.00,NW,320,19.0,23.0,22,-99.99,,,-99.99,,2013-04-01 01:02:00,
2013-03-31 19:12:00,48.0,12.0,-100.00,NW,320,16.0,25.0,23,-99.99,,,-99.99,,2013-04-01 01:12:00,
2013-03-31 19:22:00,47.0,12.0,-100.00,NW,315,13.0,21.0,24,-99.99,,,-99.99,,2013-04-01 01:22:00,
2013-03-31 19:32:00,46.0,12.0,-100.00,NW,320,13.0,17.0,25,-99.99,,,-99.99,,2013-04-01 01:32:00,
2013-03-31 19:42:00,45.0,12.0,-100.00,NW,315,11.0,16.0,26,-99.99,,,-99.99,,2013-04-01 01:42:00,
2013-03-31 19:52:00,44.0,12.0,-100.00,NW,320,8.0,13.0,27,-99.99,,,-99.99,,2013-04-01 01:52:00,
2013-03-31 20:02:00,43.0,12.0,-100.00,NW,320,6.0,10.0,28,-99.99,,,-99.99,,2013-04-01 02:02:00,
2013-03-31 20:12:00,42.0,12.0,-100.00,NW,325,6.0,9.0,28,-99.99,,,-99.99,,2013-04-01 02:12:00,
2013-03-31 20:22:00,41.0,12.0,-100.00,North,350,2.0,4.0,29,-99.99,,,-99.99,,2013-04-01 02:22:00,
2013-03-31 20:33:00,41.0,12.0,-100.00,NW,310,5.0,7.0,29,-99.99,,,-99.99,,2013-04-01 02:33:00,
2013-03-31 20:42:00,42.0,13.0,-100.00,West,280,6.0,7.0,29,-99.99,,,-99.99,,2013-04-01 02:42:00,
2013-03-31 20:52:00,43.0,13.0,-100.00,NW,315,2.0,6.0,29,-99.99,,,-99.99,,2013-04-01 02:52:00,
2013-03-31 21:02:00,39.0,13.0,-100.00,SSW,200,2.0,13.0,33,-99.99,,,-99.99,,2013-04-01 03:02:00,
2013-03-31 21:12:00,39.0,15.0,-100.00,NE,50,16.0,19.0,36,-99.99,,,-99.99,,2013-04-01 03:12:00,
2013-03-31 21:22:00,38.0,17.0,-100.00,NE,55,8.0,17.0,41,-99.99,,,-99.99,,2013-04-01 03:22:00,
2013-03-31 21:34:00,37.0,18.0,-100.00,NE,50,13.0,17.0,44,-99.99,,,-99.99,,2013-04-01 03:34:00,
2013-03-31 21:43:00,37.0,18.0,-100.00,NE,45,14.0,19.0,46,-99.99,,,-99.99,,2013-04-01 03:43:00,
2013-03-31 21:53:00,37.0,19.0,-100.00,NE,50,12.0,17.0,48,-99.99,,,-99.99,,2013-04-01 03:53:00,
2013-03-31 22:03:00,36.0,19.0,-100.00,NE,40,12.0,17.0,50,-99.99,,,-99.99,,2013-04-01 04:03:00,
2013-03-31 22:13:00,36.0,20.0,-100.00,NE,45,16.0,19.0,51,-99.99,,,-99.99,,2013-04-01 04:13:00,
2013-03-31 22:23:00,34.0,20.0,-100.00,NE,50,17.0,22.0,54,-99.99,,,-99.99,,2013-04-01 04:23:00,
2013-03-31 22:33:00,34.0,20.0,-100.00,NE,45,16.0,24.0,56,-99.99,,,-99.99,,2013-04-01 04:33:00,
2013-03-31 22:43:00,33.0,20.0,-100.00,NE,50,13.0,21.0,60,-99.99,,,-99.99,,2013-04-01 04:43:00,
2013-03-31 22:52:00,32.0,22.0,-100.00,NE,45,13.0,23.0,65,-99.99,,,-99.99,,2013-04-01 04:52:00,
2013-03-31 23:02:00,31.0,22.0,-100.00,SSE,155,9.0,17.0,69,-99.99,,,-99.99,,2013-04-01 05:02:00,
2013-03-31 23:12:00,31.0,23.0,-100.00,SE,130,10.0,12.0,71,-99.99,,,-99.99,,2013-04-01 05:12:00,
2013-03-31 23:22:00,31.0,24.0,-100.00,SE,125,11.0,14.0,75,-99.99,,,-99.99,,2013-04-01 05:22:00,
2013-03-31 23:32:00,30.0,24.0,-100.00,ESE,115,10.0,13.0,77,-99.99,,,-99.99,,2013-04-01 05:32:00,
2013-03-31 23:42:00,29.0,24.0,-100.00,East,100,7.0,11.0,81,-99.99,,,-99.99,,2013-04-01 05:42:00,
2013-03-31 23:52:00,29.0,25.0,-100.00,ESE,120,7.0,11.0,84,-99.99,,,-99.99,,2013-04-01 05:52:00,